createdAt,value
2022-09-24T00:01:16.193Z,90.38
2022-09-24T00:03:21.230Z,90.32
2022-09-24T00:05:25.218Z,90.10
2022-09-24T00:07:29.101Z,89.87
2022-09-24T00:09:32.777Z,89.61
2022-09-24T00:11:36.819Z,90.06
2022-09-24T00:13:41.486Z,90.12
2022-09-24T00:15:48.044Z,89.84
2022-09-24T00:17:53.373Z,89.47
2022-09-24T00:19:57.231Z,89.62
2022-09-24T00:22:00.989Z,89.32
2022-09-24T00:24:06.995Z,89.08
2022-09-24T00:26:29.997Z,88.92
2022-09-24T00:28:35.170Z,89.33
2022-09-24T00:30:40.839Z,89.05
2022-09-24T00:32:44.354Z,89.08
2022-09-24T00:34:53.607Z,89.28
2022-09-24T00:36:57.392Z,89.25
2022-09-24T00:39:01.536Z,89.24
2022-09-24T00:41:05.280Z,89.14
2022-09-24T00:43:27.487Z,89.28
2022-09-24T00:45:32.959Z,89.68
2022-09-24T00:47:38.794Z,89.49
2022-09-24T00:49:44.539Z,89.44
2022-09-24T00:51:52.883Z,89.48
2022-09-24T00:54:02.482Z,89.53
2022-09-24T00:56:08.794Z,89.45
2022-09-24T00:58:14.723Z,89.68
2022-09-24T01:00:19.493Z,89.20
2022-09-24T01:02:24.583Z,89.59
2022-09-24T01:04:29.966Z,89.02
2022-09-24T01:06:33.617Z,89.07
2022-09-24T01:08:38.987Z,88.91
2022-09-24T01:10:56.027Z,88.94
2022-09-24T01:13:10.305Z,88.88
2022-09-24T01:15:23.299Z,89.06
2022-09-24T01:17:33.951Z,88.65
2022-09-24T01:19:59.954Z,88.28
2022-09-24T01:22:08.793Z,88.71
2022-09-24T01:24:53.635Z,88.84
2022-09-24T01:27:05.647Z,88.65
2022-09-24T01:29:46.365Z,88.21
2022-09-24T01:31:57.463Z,88.54
2022-09-24T01:34:06.297Z,88.42
2022-09-24T01:36:11.529Z,88.66
2022-09-24T01:38:18.790Z,88.54
2022-09-24T01:40:27.384Z,88.79
2022-09-24T01:42:33.339Z,88.96
2022-09-24T01:44:37.818Z,88.97
2022-09-24T01:46:43.644Z,89.14
2022-09-24T01:48:48.455Z,89.16
2022-09-24T01:50:56.808Z,88.98
2022-09-24T01:53:06.711Z,88.99
2022-09-24T01:55:15.648Z,88.89
2022-09-24T01:57:24.653Z,88.81
2022-09-24T01:59:33.503Z,88.89
2022-09-24T02:01:44.072Z,88.80
2022-09-24T02:03:54.109Z,88.79
2022-09-24T02:06:03.865Z,89.20
2022-09-24T02:08:13.196Z,89.00
2022-09-24T02:10:17.260Z,89.31
2022-09-24T02:12:24.158Z,89.40
2022-09-24T02:14:30.255Z,89.80
2022-09-24T02:16:37.471Z,89.42
2022-09-24T02:18:44.055Z,89.72
2022-09-24T02:20:49.846Z,89.45
2022-09-24T02:22:55.586Z,89.65
2022-09-24T02:25:02.105Z,89.51
2022-09-24T02:27:05.551Z,90.24
2022-09-24T02:29:09.038Z,89.68
2022-09-24T02:31:15.804Z,90.03
2022-09-24T02:33:38.924Z,90.18
2022-09-24T02:35:42.639Z,90.33
2022-09-24T02:37:48.166Z,89.55
2022-09-24T02:39:51.500Z,89.90
2022-09-24T02:41:56.033Z,90.30
2022-09-24T02:43:59.526Z,90.58
2022-09-24T02:46:03.038Z,90.45
2022-09-24T02:48:06.475Z,90.19
2022-09-24T02:50:10.637Z,90.44
2022-09-24T02:52:13.963Z,90.23
2022-09-24T02:54:19.720Z,90.48
2022-09-24T02:56:23.002Z,90.33
2022-09-24T02:58:26.416Z,90.53
2022-09-24T03:00:30.572Z,90.55
2022-09-24T03:02:34.114Z,90.85
2022-09-24T03:04:37.501Z,90.24
2022-09-24T03:06:40.942Z,90.59
2022-09-24T03:08:45.432Z,90.59
2022-09-24T03:10:50.850Z,90.71
2022-09-24T03:12:54.146Z,90.62
2022-09-24T03:14:57.338Z,90.76
2022-09-24T03:17:00.600Z,90.74
2022-09-24T03:19:03.917Z,91.17
2022-09-24T03:21:09.676Z,91.50
2022-09-24T03:23:12.920Z,91.59
2022-09-24T03:25:16.353Z,91.53
2022-09-24T03:27:21.689Z,92.07
2022-09-24T03:29:45.383Z,91.58
2022-09-24T03:31:47.392Z,91.94
2022-09-24T03:33:51.286Z,91.77
2022-09-24T03:35:57.399Z,91.91
2022-09-24T03:38:00.719Z,91.85
2022-09-24T03:40:04.087Z,92.03
2022-09-24T03:42:07.814Z,92.54
2022-09-24T03:44:12.809Z,92.27
2022-09-24T03:46:19.506Z,92.39
2022-09-24T03:48:24.347Z,92.32
2022-09-24T03:50:27.721Z,92.48
2022-09-24T03:52:31.023Z,92.55
2022-09-24T03:54:34.353Z,92.78
2022-09-24T03:56:37.671Z,92.82
2022-09-24T03:58:42.061Z,92.82
2022-09-24T04:00:46.721Z,92.60
2022-09-24T04:02:50.640Z,92.52
2022-09-24T04:04:54.131Z,92.80
2022-09-24T04:06:57.422Z,92.55
2022-09-24T04:09:00.706Z,92.60
2022-09-24T04:11:04.198Z,92.78
2022-09-24T04:13:07.527Z,92.91
2022-09-24T04:15:11.655Z,92.49
2022-09-24T04:17:17.675Z,92.88
2022-09-24T04:19:20.963Z,92.87
2022-09-24T04:21:24.249Z,92.82
2022-09-24T04:23:27.878Z,92.71
2022-09-24T04:25:32.986Z,93.34
2022-09-24T04:27:36.836Z,93.04
2022-09-24T04:29:40.092Z,93.24
2022-09-24T04:31:43.477Z,93.45
2022-09-24T04:33:48.168Z,93.49
2022-09-24T04:35:51.429Z,93.92
2022-09-24T04:37:54.859Z,94.00
2022-09-24T04:39:58.190Z,93.83
2022-09-24T04:42:01.445Z,94.27
2022-09-24T04:44:05.363Z,94.36
2022-09-24T04:46:09.537Z,94.81
2022-09-24T04:48:13.070Z,94.82
2022-09-24T04:50:17.896Z,94.33
2022-09-24T04:52:29.854Z,95.06
2022-09-24T04:54:33.091Z,94.95
2022-09-24T04:56:36.493Z,95.55
2022-09-24T04:58:39.971Z,95.51
2022-09-24T05:00:43.344Z,95.30
2022-09-24T05:02:47.162Z,95.25
2022-09-24T05:04:50.698Z,95.17
2022-09-24T05:06:55.582Z,95.50
2022-09-24T05:08:58.983Z,96.21
2022-09-24T05:11:02.811Z,95.78
2022-09-24T05:13:06.394Z,96.51
2022-09-24T05:15:12.608Z,96.32
2022-09-24T05:17:15.960Z,96.26
2022-09-24T05:19:19.375Z,96.07
2022-09-24T05:21:22.654Z,96.28
2022-09-24T05:23:27.502Z,95.78
2022-09-24T05:25:31.098Z,96.80
2022-09-24T05:27:33.510Z,96.55
2022-09-24T05:29:38.090Z,96.68
2022-09-24T05:31:41.758Z,96.22
2022-09-24T05:33:46.189Z,96.04
2022-09-24T05:35:55.630Z,96.60
2022-09-24T05:37:59.170Z,96.75
2022-09-24T05:40:18.790Z,96.49
2022-09-24T05:42:22.693Z,96.38
2022-09-24T05:44:26.668Z,96.80
2022-09-24T05:46:30.635Z,97.34
2022-09-24T05:48:34.304Z,97.33
2022-09-24T05:50:37.775Z,97.31
2022-09-24T05:52:41.548Z,97.22
2022-09-24T05:54:45.333Z,97.35
2022-09-24T05:56:50.758Z,97.60
2022-09-24T05:58:55.340Z,97.33
2022-09-24T06:01:01.382Z,98.09
2022-09-24T06:03:08.165Z,97.92
2022-09-24T06:05:13.126Z,97.54
2022-09-24T06:07:16.808Z,97.12
2022-09-24T06:09:20.411Z,96.96
2022-09-24T06:11:24.235Z,97.26
2022-09-24T06:13:29.458Z,97.82
2022-09-24T06:15:33.242Z,96.83
2022-09-24T06:17:36.806Z,96.77
2022-09-24T06:19:41.427Z,96.76
2022-09-24T06:21:45.149Z,97.02
2022-09-24T06:23:50.757Z,96.62
2022-09-24T06:25:54.614Z,96.74
2022-09-24T06:28:01.036Z,96.74
2022-09-24T06:30:07.060Z,96.46
2022-09-24T06:32:10.751Z,95.85
2022-09-24T06:34:16.275Z,96.05
2022-09-24T06:36:20.079Z,96.48
2022-09-24T06:38:23.673Z,96.45
2022-09-24T06:40:29.410Z,96.50
2022-09-24T06:42:36.354Z,96.09
2022-09-24T06:44:40.081Z,95.82
2022-09-24T06:46:45.654Z,96.02
2022-09-24T06:48:50.289Z,94.96
2022-09-24T06:50:54.925Z,94.91
2022-09-24T06:52:59.260Z,94.95
2022-09-24T06:55:02.978Z,94.57
2022-09-24T06:57:08.281Z,94.43
2022-09-24T06:59:12.292Z,94.60
2022-09-24T07:01:16.121Z,94.12
2022-09-24T07:03:21.937Z,93.90
2022-09-24T07:05:25.872Z,93.86
2022-09-24T07:07:33.208Z,93.86
2022-09-24T07:09:40.991Z,93.10
2022-09-24T07:11:46.856Z,93.47
2022-09-24T07:13:50.577Z,93.26
2022-09-24T07:15:54.565Z,93.79
2022-09-24T07:17:58.481Z,93.88
2022-09-24T07:20:03.753Z,93.51
2022-09-24T07:22:07.719Z,93.15
2022-09-24T07:24:11.698Z,93.64
2022-09-24T07:26:15.362Z,92.81
2022-09-24T07:28:19.360Z,92.50
2022-09-24T07:30:23.247Z,92.59
2022-09-24T07:32:30.093Z,92.49
2022-09-24T07:34:34.113Z,92.13
2022-09-24T07:36:39.400Z,92.09
2022-09-24T07:38:42.877Z,91.59
2022-09-24T07:40:46.749Z,91.26
2022-09-24T07:42:50.736Z,90.36
2022-09-24T07:44:55.863Z,89.89
2022-09-24T07:46:59.838Z,89.70
2022-09-24T07:49:03.707Z,89.54
2022-09-24T07:51:11.739Z,89.75
2022-09-24T07:53:17.136Z,89.94
2022-09-24T07:55:21.427Z,89.80
2022-09-24T07:57:27.224Z,90.15
2022-09-24T07:59:32.886Z,90.46
2022-09-24T08:01:36.689Z,90.84
2022-09-24T08:03:41.093Z,90.91
2022-09-24T08:05:46.581Z,90.85
2022-09-24T08:07:53.932Z,90.83
2022-09-24T08:09:58.948Z,91.36
2022-09-24T08:12:03.079Z,90.80
2022-09-24T08:14:07.516Z,90.83
2022-09-24T08:16:11.359Z,90.57
2022-09-24T08:18:15.086Z,90.80
2022-09-24T08:20:19.711Z,90.84
2022-09-24T08:22:23.300Z,90.42
2022-09-24T08:24:27.454Z,90.29
2022-09-24T08:26:32.573Z,89.32
2022-09-24T08:28:36.670Z,89.59
2022-09-24T08:30:41.279Z,89.62
2022-09-24T08:32:48.645Z,89.38
2022-09-24T08:34:52.843Z,89.34
2022-09-24T08:36:56.748Z,88.75
2022-09-24T08:39:00.397Z,89.07
2022-09-24T08:41:17.648Z,88.90
2022-09-24T08:43:36.876Z,89.33
2022-09-24T08:46:03.439Z,89.25
2022-09-24T08:48:15.302Z,89.44
2022-09-24T08:50:22.400Z,88.81
2022-09-24T08:52:37.471Z,88.55
2022-09-24T08:54:44.814Z,88.92
2022-09-24T08:56:48.617Z,89.22
2022-09-24T08:58:59.944Z,88.71
2022-09-24T09:01:16.589Z,87.82
2022-09-24T09:03:31.624Z,87.59
2022-09-24T09:05:51.565Z,88.18
2022-09-24T09:08:03.286Z,87.81
2022-09-24T09:10:13.749Z,87.66
2022-09-24T09:12:22.448Z,87.17
2022-09-24T09:14:42.436Z,87.58
2022-09-24T09:16:52.173Z,86.63
2022-09-24T09:19:01.846Z,85.63
2022-09-24T09:21:18.527Z,85.67
2022-09-24T09:23:24.124Z,84.72
2022-09-24T09:25:30.803Z,83.77
2022-09-24T09:27:34.466Z,83.72
2022-09-24T09:29:39.927Z,82.42
2022-09-24T09:31:56.657Z,82.33
2022-09-24T09:34:28.640Z,81.60
2022-09-24T09:36:50.880Z,81.28
2022-09-24T09:39:02.669Z,80.13
2022-09-24T09:41:18.681Z,80.76
2022-09-24T09:43:22.411Z,78.61
2022-09-24T09:45:35.471Z,78.31
2022-09-24T09:47:45.063Z,77.68
2022-09-24T09:49:52.721Z,76.15
2022-09-24T09:51:59.677Z,75.07
2022-09-24T09:54:04.872Z,74.90
2022-09-24T09:56:09.739Z,74.71
2022-09-24T09:58:20.360Z,74.66
2022-09-24T10:00:35.498Z,72.35
2022-09-24T10:02:44.968Z,72.24
2022-09-24T10:04:51.992Z,70.64
2022-09-24T10:07:06.086Z,69.43
2022-09-24T10:09:14.703Z,67.97
2022-09-24T10:11:20.358Z,66.79
2022-09-24T10:13:25.161Z,65.92
2022-09-24T10:15:30.518Z,65.46
2022-09-24T10:17:38.845Z,65.60
2022-09-24T10:19:48.050Z,65.96
2022-09-24T10:21:53.873Z,66.67
2022-09-24T10:24:01.252Z,67.04
2022-09-24T10:26:06.991Z,66.04
2022-09-24T10:28:35.816Z,66.36
2022-09-24T10:30:51.467Z,65.68
2022-09-24T10:32:59.116Z,65.55
2022-09-24T10:35:06.165Z,65.71
2022-09-24T10:37:17.027Z,66.61
2022-09-24T10:39:23.081Z,67.02
2022-09-24T10:41:28.707Z,67.40
2022-09-24T10:43:32.836Z,67.99
2022-09-24T10:46:02.831Z,68.77
2022-09-24T10:48:17.017Z,68.69
2022-09-24T10:50:27.877Z,68.25
2022-09-24T10:52:56.863Z,68.82
2022-09-24T10:55:12.937Z,68.89
2022-09-24T10:57:26.945Z,69.30
2022-09-24T10:59:46.406Z,68.99
2022-09-24T11:02:10.092Z,68.26
2022-09-24T11:04:35.163Z,68.76
2022-09-24T11:06:51.165Z,68.79
2022-09-24T11:09:08.897Z,69.03
2022-09-24T11:11:25.121Z,68.91
2022-09-24T11:13:40.679Z,68.54
2022-09-24T11:16:15.251Z,68.07
2022-09-24T11:18:33.293Z,67.93
2022-09-24T11:20:39.695Z,66.94
2022-09-24T11:22:58.600Z,67.02
2022-09-24T11:25:27.738Z,66.66
2022-09-24T11:27:49.708Z,66.67
2022-09-24T11:30:12.296Z,66.94
2022-09-24T11:32:26.471Z,65.72
2022-09-24T11:34:57.188Z,64.54
2022-09-24T11:37:14.423Z,63.85
2022-09-24T11:39:32.537Z,62.61
2022-09-24T11:41:50.115Z,62.60
2022-09-24T11:44:17.873Z,62.33
2022-09-24T11:46:30.987Z,62.43
2022-09-24T11:48:59.165Z,61.22
2022-09-24T11:51:21.122Z,60.50
2022-09-24T11:53:35.925Z,59.34
2022-09-24T11:55:45.307Z,59.75
2022-09-24T11:57:55.581Z,60.01
2022-09-24T12:00:07.558Z,60.88
2022-09-24T12:02:19.551Z,62.00
2022-09-24T12:04:32.341Z,61.54
2022-09-24T12:06:42.512Z,61.50
2022-09-24T12:08:53.767Z,60.69
2022-09-24T12:11:03.464Z,61.07
2022-09-24T12:13:17.604Z,60.15
2022-09-24T12:15:25.013Z,60.58
2022-09-24T12:17:34.458Z,60.67
2022-09-24T12:19:49.906Z,59.71
2022-09-24T12:21:58.961Z,60.09
2022-09-24T12:24:08.884Z,59.80
2022-09-24T12:26:17.434Z,59.25
2022-09-24T12:28:36.783Z,59.64
2022-09-24T12:31:02.232Z,59.53
2022-09-24T12:33:13.888Z,59.86
2022-09-24T12:35:26.092Z,59.34
2022-09-24T12:37:38.729Z,58.71
2022-09-24T12:39:50.296Z,58.95
2022-09-24T12:42:01.426Z,58.74
2022-09-24T12:44:09.906Z,58.43
2022-09-24T12:46:20.576Z,58.47
2022-09-24T12:48:26.378Z,58.67
2022-09-24T12:50:32.908Z,58.23
2022-09-24T12:52:41.794Z,58.43
2022-09-24T12:54:47.264Z,58.98
2022-09-24T12:56:50.984Z,59.05
2022-09-24T12:58:55.340Z,58.54
2022-09-24T13:01:15.849Z,57.74
2022-09-24T13:03:34.951Z,57.26
2022-09-24T13:05:50.867Z,57.33
2022-09-24T13:08:01.712Z,58.10
2022-09-24T13:10:24.972Z,57.77
2022-09-24T13:12:34.494Z,58.07
2022-09-24T13:14:38.365Z,58.26
2022-09-24T13:16:44.882Z,58.83
2022-09-24T13:18:55.073Z,58.70
2022-09-24T13:21:02.651Z,59.57
2022-09-24T13:23:32.886Z,60.36
2022-09-24T13:25:37.558Z,60.63
2022-09-24T13:27:43.033Z,60.36
2022-09-24T13:29:47.389Z,60.95
2022-09-24T13:31:57.416Z,61.26
2022-09-24T13:34:04.823Z,60.71
2022-09-24T13:36:15.995Z,61.34
2022-09-24T13:38:26.867Z,60.66
2022-09-24T13:40:36.101Z,61.56
2022-09-24T13:42:49.297Z,61.86
2022-09-24T13:44:54.266Z,61.73
2022-09-24T13:47:02.390Z,61.70
2022-09-24T13:49:13.986Z,62.37
2022-09-24T13:51:20.489Z,62.66
2022-09-24T13:53:32.842Z,62.57
2022-09-24T13:55:40.780Z,62.51
2022-09-24T13:57:45.763Z,61.82
2022-09-24T13:59:49.480Z,61.80
2022-09-24T14:01:53.371Z,60.93
2022-09-24T14:04:00.468Z,60.96
2022-09-24T14:06:12.314Z,61.30
2022-09-24T14:08:18.617Z,60.91
2022-09-24T14:10:25.184Z,60.09
2022-09-24T14:12:28.798Z,59.73
2022-09-24T14:14:36.965Z,60.18
2022-09-24T14:16:40.775Z,60.09
2022-09-24T14:18:44.378Z,59.57
2022-09-24T14:20:54.053Z,60.30
2022-09-24T14:22:58.051Z,59.25
2022-09-24T14:25:07.531Z,59.51
2022-09-24T14:27:18.194Z,59.72
2022-09-24T14:29:27.201Z,60.24
2022-09-24T14:31:31.464Z,58.83
2022-09-24T14:33:35.445Z,58.84
2022-09-24T14:35:40.622Z,58.54
2022-09-24T14:37:51.151Z,57.70
2022-09-24T14:40:02.745Z,58.02
2022-09-24T14:42:13.440Z,57.91
2022-09-24T14:44:24.724Z,58.24
2022-09-24T14:46:31.701Z,58.30
2022-09-24T14:48:36.861Z,58.76
2022-09-24T14:50:42.505Z,59.55
2022-09-24T14:52:57.216Z,60.35
2022-09-24T14:55:16.459Z,60.15
2022-09-24T14:57:27.001Z,60.45
2022-09-24T14:59:33.360Z,60.57
2022-09-24T15:01:37.352Z,60.43
2022-09-24T15:03:43.574Z,60.08
2022-09-24T15:05:47.835Z,58.72
2022-09-24T15:07:51.903Z,59.16
2022-09-24T15:09:57.546Z,58.51
2022-09-24T15:12:09.792Z,58.02
2022-09-24T15:14:25.302Z,57.77
2022-09-24T15:16:35.081Z,58.09
2022-09-24T15:18:38.729Z,58.37
2022-09-24T15:20:43.424Z,58.32
2022-09-24T15:22:48.445Z,57.58
2022-09-24T15:24:51.975Z,57.98
2022-09-24T15:27:03.444Z,58.40
2022-09-24T15:29:08.459Z,57.73
2022-09-24T15:31:12.278Z,58.46
2022-09-24T15:33:17.798Z,58.07
2022-09-24T15:35:21.663Z,58.55
2022-09-24T15:37:26.758Z,58.73
2022-09-24T15:39:32.185Z,58.94
2022-09-24T15:41:36.106Z,59.08
2022-09-24T15:43:39.735Z,58.80
2022-09-24T15:45:43.758Z,58.91
2022-09-24T15:47:47.543Z,59.19
2022-09-24T15:49:52.879Z,59.15
2022-09-24T15:52:01.885Z,59.47
2022-09-24T15:54:05.749Z,59.56
2022-09-24T15:56:09.737Z,59.00
2022-09-24T15:58:19.062Z,59.17
2022-09-24T16:00:24.972Z,59.60
2022-09-24T16:02:33.294Z,59.57
2022-09-24T16:04:36.987Z,60.16
2022-09-24T16:06:42.461Z,61.11
2022-09-24T16:08:46.140Z,61.58
2022-09-24T16:10:50.197Z,62.35
2022-09-24T16:12:53.979Z,62.76
2022-09-24T16:14:59.456Z,62.59
2022-09-24T16:17:03.085Z,63.44
2022-09-24T16:19:07.376Z,64.26
2022-09-24T16:21:11.206Z,64.51
2022-09-24T16:23:18.294Z,64.99
2022-09-24T16:25:21.984Z,64.43
2022-09-24T16:27:25.684Z,64.99
2022-09-24T16:29:29.586Z,64.99
2022-09-24T16:31:33.558Z,65.49
2022-09-24T16:33:39.805Z,64.79
2022-09-24T16:35:43.351Z,64.77
2022-09-24T16:37:47.269Z,64.61
2022-09-24T16:39:52.702Z,64.70
2022-09-24T16:41:56.320Z,65.49
2022-09-24T16:44:00.177Z,64.93
2022-09-24T16:46:04.967Z,65.19
2022-09-24T16:48:08.857Z,65.10
2022-09-24T16:50:13.016Z,65.71
2022-09-24T16:52:16.668Z,66.01
2022-09-24T16:54:20.536Z,65.40
2022-09-24T16:56:25.972Z,66.15
2022-09-24T16:58:29.914Z,66.68
2022-09-24T17:00:33.540Z,66.90
2022-09-24T17:02:37.458Z,66.83
2022-09-24T17:04:41.852Z,67.22
2022-09-24T17:06:47.065Z,67.27
2022-09-24T17:09:08.635Z,67.06
2022-09-24T17:11:12.462Z,67.67
2022-09-24T17:13:17.567Z,67.61
2022-09-24T17:15:22.504Z,67.71
2022-09-24T17:17:26.530Z,68.59
2022-09-24T17:19:30.103Z,68.05
2022-09-24T17:21:33.822Z,68.25
2022-09-24T17:23:37.497Z,69.28
2022-09-24T17:25:41.344Z,68.46
2022-09-24T17:27:45.507Z,68.97
2022-09-24T17:29:51.064Z,69.07
2022-09-24T17:31:54.605Z,68.88
2022-09-24T17:33:58.953Z,68.44
2022-09-24T17:36:04.814Z,68.86
2022-09-24T17:38:08.336Z,68.41
2022-09-24T17:40:13.140Z,68.93
2022-09-24T17:42:16.911Z,68.59
2022-09-24T17:44:21.021Z,69.31
2022-09-24T17:46:27.455Z,69.16
2022-09-24T17:48:34.626Z,69.44
2022-09-24T17:50:38.303Z,69.50
2022-09-24T17:52:42.004Z,69.36
2022-09-24T17:54:48.160Z,69.48
2022-09-24T17:56:51.960Z,69.38
2022-09-24T17:58:57.293Z,69.91
2022-09-24T18:01:07.065Z,70.77
2022-09-24T18:03:12.885Z,71.07
2022-09-24T18:05:16.589Z,70.87
2022-09-24T18:07:20.495Z,71.69
2022-09-24T18:09:24.245Z,71.26
2022-09-24T18:11:30.282Z,71.99
2022-09-24T18:13:35.083Z,72.32
2022-09-24T18:15:38.958Z,72.28
2022-09-24T18:17:42.756Z,72.36
2022-09-24T18:19:47.741Z,72.51
2022-09-24T18:21:51.763Z,73.01
2022-09-24T18:23:56.427Z,73.32
2022-09-24T18:26:10.875Z,73.64
2022-09-24T18:28:18.581Z,73.90
2022-09-24T18:30:22.640Z,74.20
2022-09-24T18:32:27.466Z,73.71
2022-09-24T18:34:31.445Z,73.42
2022-09-24T18:36:38.661Z,73.53
2022-09-24T18:38:44.562Z,72.96
2022-09-24T18:40:49.901Z,72.34
2022-09-24T18:42:53.834Z,71.99
2022-09-24T18:44:57.546Z,71.17
2022-09-24T18:47:01.436Z,70.81
2022-09-24T18:49:06.637Z,70.72
2022-09-24T18:51:17.591Z,70.72
2022-09-24T18:53:22.530Z,71.29
2022-09-24T18:55:26.846Z,70.44
2022-09-24T18:57:32.694Z,70.57
2022-09-24T18:59:44.579Z,69.77
2022-09-24T19:01:51.066Z,69.80
2022-09-24T19:03:55.254Z,69.90
2022-09-24T19:06:03.437Z,69.47
2022-09-24T19:08:07.333Z,69.90
2022-09-24T19:10:12.880Z,69.63
2022-09-24T19:12:16.382Z,69.54
2022-09-24T19:14:20.405Z,69.82
2022-09-24T19:16:25.086Z,69.87
2022-09-24T19:18:28.742Z,68.71
2022-09-24T19:20:32.623Z,68.26
2022-09-24T19:22:36.313Z,68.38
2022-09-24T19:24:39.971Z,68.04
2022-09-24T19:26:45.388Z,68.03
2022-09-24T19:28:51.210Z,68.08
2022-09-24T19:30:55.482Z,67.79
2022-09-24T19:33:00.245Z,67.71
2022-09-24T19:35:04.208Z,67.60
2022-09-24T19:37:08.109Z,67.79
2022-09-24T19:39:13.136Z,67.79
2022-09-24T19:41:21.742Z,67.81
2022-09-24T19:43:26.978Z,68.09
2022-09-24T19:45:31.487Z,67.58
2022-09-24T19:47:35.300Z,67.61
2022-09-24T19:49:39.015Z,67.89
2022-09-24T19:51:43.242Z,67.91
2022-09-24T19:53:51.410Z,68.11
2022-09-24T19:55:55.538Z,68.78
2022-09-24T19:58:01.518Z,68.92
2022-09-24T20:00:08.164Z,68.40
2022-09-24T20:02:13.759Z,69.11
2022-09-24T20:04:17.933Z,69.27
2022-09-24T20:06:23.211Z,69.64
2022-09-24T20:08:27.364Z,69.67
2022-09-24T20:10:31.611Z,69.82
2022-09-24T20:12:35.831Z,70.35
2022-09-24T20:14:41.177Z,69.72
2022-09-24T20:16:46.425Z,70.24
2022-09-24T20:18:51.662Z,70.68
2022-09-24T20:20:56.106Z,70.05
2022-09-24T20:23:00.266Z,70.56
2022-09-24T20:25:03.813Z,69.77
2022-09-24T20:27:24.828Z,69.41
2022-09-24T20:29:29.179Z,69.75
2022-09-24T20:31:33.528Z,70.23
2022-09-24T20:33:40.738Z,69.95
2022-09-24T20:35:45.045Z,70.48
2022-09-24T20:37:50.120Z,70.28
2022-09-24T20:39:53.890Z,70.00
2022-09-24T20:42:01.829Z,70.40
2022-09-24T20:44:05.907Z,70.47
2022-09-24T20:46:14.489Z,70.50
2022-09-24T20:48:18.477Z,70.54
2022-09-24T20:50:23.675Z,71.28
2022-09-24T20:52:27.740Z,70.77
2022-09-24T20:54:31.981Z,71.35
2022-09-24T20:56:35.922Z,71.08
2022-09-24T20:58:40.816Z,71.67
2022-09-24T21:00:54.575Z,71.55
2022-09-24T21:02:58.393Z,71.94
2022-09-24T21:05:02.107Z,72.03
2022-09-24T21:07:07.972Z,72.04
2022-09-24T21:09:11.823Z,72.44
2022-09-24T21:11:18.302Z,72.18
2022-09-24T21:13:23.622Z,72.86
2022-09-24T21:15:27.655Z,72.83
2022-09-24T21:17:31.586Z,73.06
2022-09-24T21:19:36.925Z,73.60
2022-09-24T21:21:40.902Z,73.82
2022-09-24T21:23:46.975Z,73.98
2022-09-24T21:25:54.419Z,73.73
2022-09-24T21:27:58.468Z,74.46
2022-09-24T21:30:02.291Z,74.35
2022-09-24T21:32:06.351Z,74.71
2022-09-24T21:34:10.577Z,74.06
2022-09-24T21:36:19.088Z,74.88
2022-09-24T21:38:22.982Z,75.00
2022-09-24T21:40:29.568Z,75.29
2022-09-24T21:42:34.526Z,75.26
2022-09-24T21:44:38.189Z,75.36
2022-09-24T21:46:43.271Z,75.43
2022-09-24T21:48:47.260Z,75.64
2022-09-24T21:50:51.421Z,75.67
2022-09-24T21:52:55.320Z,75.86
2022-09-24T21:54:59.194Z,75.98
2022-09-24T21:57:04.674Z,76.27
2022-09-24T21:59:28.670Z,76.73
2022-09-24T22:01:34.467Z,76.76
2022-09-24T22:03:39.193Z,76.92
2022-09-24T22:05:44.098Z,77.35
2022-09-24T22:07:48.789Z,77.28
2022-09-24T22:09:52.521Z,77.90
2022-09-24T22:11:58.117Z,77.66
2022-09-24T22:14:03.940Z,78.04
2022-09-24T22:16:10.825Z,77.70
2022-09-24T22:18:15.213Z,78.38
2022-09-24T22:20:19.351Z,78.31
2022-09-24T22:22:22.908Z,78.63
2022-09-24T22:24:27.209Z,79.27
2022-09-24T22:26:31.438Z,79.71
2022-09-24T22:28:36.478Z,79.93
2022-09-24T22:30:45.628Z,79.65
2022-09-24T22:32:49.297Z,79.89
2022-09-24T22:35:10.510Z,80.46
2022-09-24T22:37:14.575Z,80.75
2022-09-24T22:39:18.264Z,80.59
2022-09-24T22:41:22.049Z,80.82
2022-09-24T22:43:25.641Z,80.94
2022-09-24T22:45:29.388Z,80.96
2022-09-24T22:47:34.425Z,81.46
2022-09-24T22:49:38.429Z,81.85
2022-09-24T22:51:42.594Z,81.86
2022-09-24T22:53:46.351Z,81.65
2022-09-24T22:55:52.807Z,81.32
2022-09-24T22:57:56.726Z,81.73
2022-09-24T23:00:01.534Z,81.54
2022-09-24T23:02:09.524Z,81.67
2022-09-24T23:04:18.055Z,81.36
2022-09-24T23:06:23.025Z,81.76
2022-09-24T23:08:26.549Z,81.64
2022-09-24T23:10:30.295Z,81.61
2022-09-24T23:12:34.163Z,81.73
2022-09-24T23:14:38.003Z,82.12
2022-09-24T23:16:43.115Z,82.37
2022-09-24T23:18:49.083Z,81.78
2022-09-24T23:20:54.408Z,82.57
2022-09-24T23:22:58.538Z,82.16
2022-09-24T23:25:02.544Z,82.45
2022-09-24T23:27:06.172Z,82.65
2022-09-24T23:29:11.568Z,82.31
2022-09-24T23:31:16.460Z,82.35
2022-09-24T23:33:20.398Z,82.81
2022-09-24T23:35:23.900Z,82.47
2022-09-24T23:37:30.684Z,82.95
2022-09-24T23:39:34.382Z,82.31
2022-09-24T23:41:37.969Z,82.98
2022-09-24T23:43:42.154Z,82.94
2022-09-24T23:45:45.858Z,83.11
2022-09-24T23:47:49.653Z,83.37
2022-09-24T23:49:53.326Z,83.03
2022-09-24T23:51:56.896Z,82.94
2022-09-24T23:54:01.965Z,83.42
2022-09-24T23:56:07.567Z,83.64
2022-09-24T23:58:11.343Z,82.93
